sensor_id;sensor_type;location;lat;lon;timestamp;pressure;altitude;pressure_sealevel;temperature;humidity
77043;BME280;65975;53.936;27.540;2023-02-14T00:00:45;99672.81;;;3.74;75.59
77043;BME280;65975;53.936;27.540;2023-02-14T00:03:14;99667.47;;;3.47;75.81
77043;BME280;65975;53.936;27.540;2023-02-14T00:05:40;99663.25;;;3.66;75.57
77043;BME280;65975;53.936;27.540;2023-02-14T00:08:05;99674.34;;;3.46;76.03
77043;BME280;65975;53.936;27.540;2023-02-14T00:10:30;99661.50;;;3.63;75.69
77043;BME280;65975;53.936;27.540;2023-02-14T00:12:56;99670.25;;;3.82;75.15
77043;BME280;65975;53.936;27.540;2023-02-14T00:15:21;99670.16;;;3.65;75.76
77043;BME280;65975;53.936;27.540;2023-02-14T00:17:52;99664.16;;;3.69;75.30
77043;BME280;65975;53.936;27.540;2023-02-14T00:20:19;99587.22;;;3.47;74.75
77043;BME280;65975;53.936;27.540;2023-02-14T00:22:45;99564.28;;;2.68;75.71
77043;BME280;65975;53.936;27.540;2023-02-14T00:25:11;99670.03;;;3.47;76.07
77043;BME280;65975;53.936;27.540;2023-02-14T00:27:36;99678.75;;;3.56;75.96
77043;BME280;65975;53.936;27.540;2023-02-14T00:30:02;99660.53;;;3.41;76.16
77043;BME280;65975;53.936;27.540;2023-02-14T00:32:29;99677.97;;;3.73;75.34
77043;BME280;65975;53.936;27.540;2023-02-14T00:34:55;99693.53;;;3.76;75.01
77043;BME280;65975;53.936;27.540;2023-02-14T00:37:21;99663.19;;;3.55;75.37
77043;BME280;65975;53.936;27.540;2023-02-14T00:39:46;99663.94;;;3.39;75.79
77043;BME280;65975;53.936;27.540;2023-02-14T00:42:13;99696.81;;;3.50;76.07
77043;BME280;65975;53.936;27.540;2023-02-14T00:44:39;99554.84;;;2.73;75.70
77043;BME280;65975;53.936;27.540;2023-02-14T00:47:04;99690.84;;;3.60;75.48
77043;BME280;65975;53.936;27.540;2023-02-14T00:49:30;99709.88;;;3.70;75.29
77043;BME280;65975;53.936;27.540;2023-02-14T00:51:55;99701.09;;;3.45;76.06
77043;BME280;65975;53.936;27.540;2023-02-14T00:54:21;99684.66;;;3.39;75.68
77043;BME280;65975;53.936;27.540;2023-02-14T00:56:46;99703.69;;;3.45;76.35
77043;BME280;65975;53.936;27.540;2023-02-14T00:59:12;99674.38;;;3.48;76.17
77043;BME280;65975;53.936;27.540;2023-02-14T01:01:37;99705.59;;;3.74;75.36
77043;BME280;65975;53.936;27.540;2023-02-14T01:04:04;99710.56;;;3.42;75.53
77043;BME280;65975;53.936;27.540;2023-02-14T01:06:29;99714.06;;;3.47;76.44
77043;BME280;65975;53.936;27.540;2023-02-14T01:08:55;99711.66;;;3.77;75.64
77043;BME280;65975;53.936;27.540;2023-02-14T01:11:22;99700.31;;;3.58;74.76
77043;BME280;65975;53.936;27.540;2023-02-14T01:13:48;99685.38;;;3.19;75.79
77043;BME280;65975;53.936;27.540;2023-02-14T01:16:17;99717.53;;;3.52;75.61
77043;BME280;65975;53.936;27.540;2023-02-14T01:18:44;99739.13;;;3.57;75.66
77043;BME280;65975;53.936;27.540;2023-02-14T01:23:47;99718.50;;;3.71;74.73
77043;BME280;65975;53.936;27.540;2023-02-14T01:26:14;99732.38;;;3.77;74.27
77043;BME280;65975;53.936;27.540;2023-02-14T01:28:40;99722.03;;;3.83;73.46
77043;BME280;65975;53.936;27.540;2023-02-14T01:31:13;99726.34;;;3.75;74.69
77043;BME280;65975;53.936;27.540;2023-02-14T01:33:40;99702.06;;;3.64;74.51
77043;BME280;65975;53.936;27.540;2023-02-14T01:36:14;99729.72;;;3.70;74.46
77043;BME280;65975;53.936;27.540;2023-02-14T01:38:40;99696.81;;;3.50;74.46
77043;BME280;65975;53.936;27.540;2023-02-14T01:41:06;99697.63;;;3.40;75.58
77043;BME280;65975;53.936;27.540;2023-02-14T01:43:48;99681.84;;;3.08;75.37
77043;BME280;65975;53.936;27.540;2023-02-14T01:46:14;99721.75;;;3.38;75.59
77043;BME280;65975;53.936;27.540;2023-02-14T01:48:40;99725.09;;;3.25;75.44
77043;BME280;65975;53.936;27.540;2023-02-14T01:51:06;99718.94;;;3.12;76.29
77043;BME280;65975;53.936;27.540;2023-02-14T01:53:32;99688.91;;;3.28;75.50
77043;BME280;65975;53.936;27.540;2023-02-14T01:56:05;99708.03;;;3.51;74.83
77043;BME280;65975;53.936;27.540;2023-02-14T01:58:33;99657.41;;;2.71;75.57
77043;BME280;65975;53.936;27.540;2023-02-14T02:01:01;99724.88;;;3.00;76.30
77043;BME280;65975;53.936;27.540;2023-02-14T02:03:35;99724.94;;;3.06;76.27
77043;BME280;65975;53.936;27.540;2023-02-14T02:06:10;99713.63;;;2.95;75.77
77043;BME280;65975;53.936;27.540;2023-02-14T02:08:42;99691.25;;;3.00;75.10
77043;BME280;65975;53.936;27.540;2023-02-14T02:11:10;99691.84;;;2.69;75.97
77043;BME280;65975;53.936;27.540;2023-02-14T02:13:35;99720.47;;;2.89;76.12
77043;BME280;65975;53.936;27.540;2023-02-14T02:24:34;99727.41;;;2.93;74.90
77043;BME280;65975;53.936;27.540;2023-02-14T02:40:31;99755.09;;;3.06;74.61
77043;BME280;65975;53.936;27.540;2023-02-14T02:46:07;99647.72;;;2.51;74.48
77043;BME280;65975;53.936;27.540;2023-02-14T02:55:18;99771.19;;;2.74;75.23
77043;BME280;65975;53.936;27.540;2023-02-14T02:57:45;99771.38;;;2.94;74.14
77043;BME280;65975;53.936;27.540;2023-02-14T03:00:14;99760.06;;;2.81;74.59
77043;BME280;65975;53.936;27.540;2023-02-14T03:02:44;99770.38;;;2.78;75.33
77043;BME280;65975;53.936;27.540;2023-02-14T03:05:31;99765.28;;;2.88;74.81
77043;BME280;65975;53.936;27.540;2023-02-14T03:07:57;99699.47;;;2.60;74.45
77043;BME280;65975;53.936;27.540;2023-02-14T03:10:25;99646.53;;;2.21;73.83
77043;BME280;65975;53.936;27.540;2023-02-14T03:21:45;99790.53;;;3.13;73.54
77043;BME280;65975;53.936;27.540;2023-02-14T03:35:14;99774.94;;;3.04;72.95
77043;BME280;65975;53.936;27.540;2023-02-14T03:37:56;99764.44;;;2.89;72.84
77043;BME280;65975;53.936;27.540;2023-02-14T03:40:29;99766.19;;;2.90;73.44
77043;BME280;65975;53.936;27.540;2023-02-14T03:43:01;99763.66;;;2.99;72.71
77043;BME280;65975;53.936;27.540;2023-02-14T03:46:07;99792.06;;;2.93;73.29
77043;BME280;65975;53.936;27.540;2023-02-14T03:48:35;99786.88;;;2.90;73.04
77043;BME280;65975;53.936;27.540;2023-02-14T03:51:03;99655.69;;;1.95;73.87
77043;BME280;65975;53.936;27.540;2023-02-14T03:53:34;99784.06;;;2.70;73.33
77043;BME280;65975;53.936;27.540;2023-02-14T03:56:17;99797.16;;;2.85;74.10
77043;BME280;65975;53.936;27.540;2023-02-14T03:58:51;99749.50;;;2.62;73.85
77043;BME280;65975;53.936;27.540;2023-02-14T04:01:33;99757.34;;;2.69;73.32
77043;BME280;65975;53.936;27.540;2023-02-14T04:04:00;99771.06;;;2.64;73.83
77043;BME280;65975;53.936;27.540;2023-02-14T04:06:27;99785.00;;;2.79;73.54
77043;BME280;65975;53.936;27.540;2023-02-14T04:08:52;99788.00;;;2.39;75.46
77043;BME280;65975;53.936;27.540;2023-02-14T04:11:18;99770.16;;;2.62;73.83
77043;BME280;65975;53.936;27.540;2023-02-14T04:13:43;99776.88;;;2.45;74.61
77043;BME280;65975;53.936;27.540;2023-02-14T04:16:09;99663.31;;;1.84;74.37
77043;BME280;65975;53.936;27.540;2023-02-14T04:18:34;99758.63;;;2.32;74.75
77043;BME280;65975;53.936;27.540;2023-02-14T04:21:18;99804.75;;;2.73;74.42
77043;BME280;65975;53.936;27.540;2023-02-14T04:23:44;99800.25;;;2.55;74.77
77043;BME280;65975;53.936;27.540;2023-02-14T04:26:09;99793.88;;;2.29;75.04
77043;BME280;65975;53.936;27.540;2023-02-14T04:28:35;99801.84;;;2.44;74.27
77043;BME280;65975;53.936;27.540;2023-02-14T04:31:04;99680.63;;;1.91;74.15
77043;BME280;65975;53.936;27.540;2023-02-14T04:33:31;99790.53;;;2.36;74.77
77043;BME280;65975;53.936;27.540;2023-02-14T04:35:57;99783.53;;;2.26;74.72
77043;BME280;65975;53.936;27.540;2023-02-14T04:38:23;99797.28;;;2.25;74.31
77043;BME280;65975;53.936;27.540;2023-02-14T04:40:49;99725.25;;;1.81;75.20
77043;BME280;65975;53.936;27.540;2023-02-14T04:43:15;99791.13;;;2.15;74.86
77043;BME280;65975;53.936;27.540;2023-02-14T04:45:40;99785.22;;;2.24;74.49
77043;BME280;65975;53.936;27.540;2023-02-14T04:48:06;99748.50;;;1.83;74.21
77043;BME280;65975;53.936;27.540;2023-02-14T04:50:32;99813.59;;;2.21;75.14
77043;BME280;65975;53.936;27.540;2023-02-14T04:52:57;99813.50;;;2.15;75.70
77043;BME280;65975;53.936;27.540;2023-02-14T04:55:23;99818.53;;;2.04;75.64
77043;BME280;65975;53.936;27.540;2023-02-14T04:57:48;99816.72;;;1.98;76.03
77043;BME280;65975;53.936;27.540;2023-02-14T05:00:14;99685.81;;;1.33;75.64
77043;BME280;65975;53.936;27.540;2023-02-14T05:02:39;99802.88;;;1.95;75.89
77043;BME280;65975;53.936;27.540;2023-02-14T05:05:05;99835.13;;;2.21;74.74
77043;BME280;65975;53.936;27.540;2023-02-14T05:07:31;99761.28;;;1.74;75.40
77043;BME280;65975;53.936;27.540;2023-02-14T05:09:56;99821.38;;;2.24;74.72
77043;BME280;65975;53.936;27.540;2023-02-14T05:12:22;99796.16;;;2.05;74.76
77043;BME280;65975;53.936;27.540;2023-02-14T05:14:47;99818.75;;;2.19;75.02
77043;BME280;65975;53.936;27.540;2023-02-14T05:17:13;99832.66;;;2.29;75.14
77043;BME280;65975;53.936;27.540;2023-02-14T05:19:38;99807.69;;;1.71;75.88
77043;BME280;65975;53.936;27.540;2023-02-14T05:22:04;99833.38;;;2.19;75.24
77043;BME280;65975;53.936;27.540;2023-02-14T05:24:29;99842.81;;;2.17;75.49
77043;BME280;65975;53.936;27.540;2023-02-14T05:26:55;99830.44;;;1.94;75.81
77043;BME280;65975;53.936;27.540;2023-02-14T05:29:20;99818.84;;;1.70;76.39
77043;BME280;65975;53.936;27.540;2023-02-14T05:31:46;99832.09;;;1.91;76.22
77043;BME280;65975;53.936;27.540;2023-02-14T05:34:11;99832.84;;;1.84;76.65
77043;BME280;65975;53.936;27.540;2023-02-14T05:36:37;99803.91;;;2.05;75.78
77043;BME280;65975;53.936;27.540;2023-02-14T05:39:03;99826.25;;;2.03;75.84
77043;BME280;65975;53.936;27.540;2023-02-14T05:41:28;99834.94;;;2.09;75.81
77043;BME280;65975;53.936;27.540;2023-02-14T05:43:54;99839.09;;;1.98;75.66
77043;BME280;65975;53.936;27.540;2023-02-14T05:46:19;99699.81;;;0.94;76.62
77043;BME280;65975;53.936;27.540;2023-02-14T05:48:45;99845.97;;;1.97;75.53
77043;BME280;65975;53.936;27.540;2023-02-14T05:51:10;99834.06;;;2.06;75.63
77043;BME280;65975;53.936;27.540;2023-02-14T05:53:37;99847.78;;;2.03;75.67
77043;BME280;65975;53.936;27.540;2023-02-14T05:56:03;99826.44;;;1.59;76.87
77043;BME280;65975;53.936;27.540;2023-02-14T05:58:29;99834.56;;;1.83;75.84
77043;BME280;65975;53.936;27.540;2023-02-14T06:00:58;99762.41;;;1.37;76.04
77043;BME280;65975;53.936;27.540;2023-02-14T06:03:24;99847.56;;;1.89;75.92
77043;BME280;65975;53.936;27.540;2023-02-14T06:05:50;99831.19;;;1.87;75.48
77043;BME280;65975;53.936;27.540;2023-02-14T06:08:15;99856.13;;;1.85;75.60
77043;BME280;65975;53.936;27.540;2023-02-14T06:10:41;99844.81;;;1.79;75.43
77043;BME280;65975;53.936;27.540;2023-02-14T06:13:06;99842.47;;;1.92;74.76
77043;BME280;65975;53.936;27.540;2023-02-14T06:15:34;99835.41;;;1.81;74.92
77043;BME280;65975;53.936;27.540;2023-02-14T06:18:02;99840.69;;;1.37;76.33
77043;BME280;65975;53.936;27.540;2023-02-14T06:20:28;99880.34;;;1.93;75.79
77043;BME280;65975;53.936;27.540;2023-02-14T06:22:54;99883.69;;;1.86;75.63
77043;BME280;65975;53.936;27.540;2023-02-14T06:25:21;99887.13;;;1.87;75.32
77043;BME280;65975;53.936;27.540;2023-02-14T06:27:47;99891.66;;;2.01;75.36
77043;BME280;65975;53.936;27.540;2023-02-14T06:30:13;99881.13;;;1.88;75.34
77043;BME280;65975;53.936;27.540;2023-02-14T06:32:39;99882.19;;;2.02;74.80
77043;BME280;65975;53.936;27.540;2023-02-14T06:35:05;99861.28;;;1.85;73.89
77043;BME280;65975;53.936;27.540;2023-02-14T06:37:31;99890.03;;;2.07;74.51
77043;BME280;65975;53.936;27.540;2023-02-14T06:39:56;99900.31;;;2.04;74.91
77043;BME280;65975;53.936;27.540;2023-02-14T06:42:22;99903.13;;;2.19;73.76
77043;BME280;65975;53.936;27.540;2023-02-14T06:44:47;99912.19;;;1.92;75.12
77043;BME280;65975;53.936;27.540;2023-02-14T06:47:13;99918.31;;;1.99;74.82
77043;BME280;65975;53.936;27.540;2023-02-14T06:49:38;99845.53;;;1.70;73.80
77043;BME280;65975;53.936;27.540;2023-02-14T06:52:04;99912.91;;;1.85;74.61
77043;BME280;65975;53.936;27.540;2023-02-14T06:54:30;99895.94;;;2.01;74.83
77043;BME280;65975;53.936;27.540;2023-02-14T06:56:55;99920.06;;;2.01;74.76
77043;BME280;65975;53.936;27.540;2023-02-14T06:59:21;99912.31;;;2.01;74.41
77043;BME280;65975;53.936;27.540;2023-02-14T07:01:46;99920.28;;;2.15;74.36
77043;BME280;65975;53.936;27.540;2023-02-14T07:04:12;99926.09;;;2.02;74.19
77043;BME280;65975;53.936;27.540;2023-02-14T07:06:38;99905.22;;;1.87;75.08
77043;BME280;65975;53.936;27.540;2023-02-14T07:09:04;99920.81;;;1.93;74.75
77043;BME280;65975;53.936;27.540;2023-02-14T07:11:30;99927.75;;;1.97;74.79
77043;BME280;65975;53.936;27.540;2023-02-14T07:13:55;99925.53;;;2.20;74.25
77043;BME280;65975;53.936;27.540;2023-02-14T07:16:21;99938.97;;;1.99;74.53
77043;BME280;65975;53.936;27.540;2023-02-14T07:18:46;99938.94;;;1.97;74.75
77043;BME280;65975;53.936;27.540;2023-02-14T07:21:12;99923.34;;;1.91;73.80
77043;BME280;65975;53.936;27.540;2023-02-14T07:23:38;99938.41;;;2.17;73.65
77043;BME280;65975;53.936;27.540;2023-02-14T07:26:03;99934.50;;;1.89;73.60
77043;BME280;65975;53.936;27.540;2023-02-14T07:28:29;99940.38;;;2.33;72.71
77043;BME280;65975;53.936;27.540;2023-02-14T07:31:01;99929.94;;;2.25;72.83
77043;BME280;65975;53.936;27.540;2023-02-14T07:33:27;99923.94;;;2.29;72.52
77043;BME280;65975;53.936;27.540;2023-02-14T07:35:53;99936.38;;;2.55;71.91
77043;BME280;65975;53.936;27.540;2023-02-14T07:38:18;99945.34;;;2.78;70.82
77043;BME280;65975;53.936;27.540;2023-02-14T07:40:44;99933.75;;;2.50;71.31
77043;BME280;65975;53.936;27.540;2023-02-14T07:43:09;99943.34;;;2.60;70.89
77043;BME280;65975;53.936;27.540;2023-02-14T07:45:35;99920.56;;;2.33;70.61
77043;BME280;65975;53.936;27.540;2023-02-14T07:48:01;99826.94;;;1.91;71.06
77043;BME280;65975;53.936;27.540;2023-02-14T07:50:27;99929.47;;;2.54;70.88
77043;BME280;65975;53.936;27.540;2023-02-14T07:52:53;99973.88;;;2.84;70.00
77043;BME280;65975;53.936;27.540;2023-02-14T07:55:20;99932.47;;;2.83;69.58
77043;BME280;65975;53.936;27.540;2023-02-14T07:57:47;99935.94;;;2.85;70.04
77043;BME280;65975;53.936;27.540;2023-02-14T08:00:14;99915.34;;;2.91;69.08
77043;BME280;65975;53.936;27.540;2023-02-14T08:02:40;99935.25;;;2.98;69.34
77043;BME280;65975;53.936;27.540;2023-02-14T08:05:06;99908.84;;;2.57;68.85
77043;BME280;65975;53.936;27.540;2023-02-14T08:07:31;99929.91;;;2.86;69.24
77043;BME280;65975;53.936;27.540;2023-02-14T08:09:57;99893.53;;;2.73;68.61
77043;BME280;65975;53.936;27.540;2023-02-14T08:12:22;99947.28;;;2.94;68.99
77043;BME280;65975;53.936;27.540;2023-02-14T08:15:06;99938.47;;;2.78;68.82
77043;BME280;65975;53.936;27.540;2023-02-14T08:17:50;99957.69;;;3.00;68.35
77043;BME280;65975;53.936;27.540;2023-02-14T08:20:16;99901.41;;;2.81;67.49
77043;BME280;65975;53.936;27.540;2023-02-14T08:22:41;99925.25;;;3.28;67.43
77043;BME280;65975;53.936;27.540;2023-02-14T08:25:07;99955.75;;;2.83;67.57
77043;BME280;65975;53.936;27.540;2023-02-14T08:27:32;99869.06;;;2.46;67.85
77043;BME280;65975;53.936;27.540;2023-02-14T08:29:58;99956.69;;;3.60;66.88
77043;BME280;65975;53.936;27.540;2023-02-14T08:32:23;99928.91;;;3.45;66.62
77043;BME280;65975;53.936;27.540;2023-02-14T08:34:49;99960.00;;;3.48;66.00
77043;BME280;65975;53.936;27.540;2023-02-14T08:37:14;99903.59;;;3.17;66.14
77043;BME280;65975;53.936;27.540;2023-02-14T08:39:40;99941.22;;;2.94;66.87
77043;BME280;65975;53.936;27.540;2023-02-14T08:42:05;99948.66;;;3.37;66.85
77043;BME280;65975;53.936;27.540;2023-02-14T08:44:30;99954.03;;;3.55;67.59
77043;BME280;65975;53.936;27.540;2023-02-14T08:46:56;99930.47;;;3.30;66.52
77043;BME280;65975;53.936;27.540;2023-02-14T08:49:21;99895.66;;;3.03;66.12
77043;BME280;65975;53.936;27.540;2023-02-14T08:51:47;99968.75;;;3.59;65.40
77043;BME280;65975;53.936;27.540;2023-02-14T08:54:12;99971.28;;;3.53;65.39
77043;BME280;65975;53.936;27.540;2023-02-14T08:56:38;99975.66;;;3.59;65.45
77043;BME280;65975;53.936;27.540;2023-02-14T08:59:05;99980.13;;;3.74;64.58
77043;BME280;65975;53.936;27.540;2023-02-14T09:01:30;99993.88;;;3.67;64.91
77043;BME280;65975;53.936;27.540;2023-02-14T09:03:56;99983.69;;;3.82;64.76
77043;BME280;65975;53.936;27.540;2023-02-14T09:06:22;99975.13;;;3.89;63.81
77043;BME280;65975;53.936;27.540;2023-02-14T09:08:47;99971.63;;;3.87;64.11
77043;BME280;65975;53.936;27.540;2023-02-14T09:11:18;99838.75;;;3.03;63.01
77043;BME280;65975;53.936;27.540;2023-02-14T09:13:45;99978.56;;;3.88;63.21
77043;BME280;65975;53.936;27.540;2023-02-14T09:16:12;99962.28;;;4.04;63.39
77043;BME280;65975;53.936;27.540;2023-02-14T09:18:38;99972.44;;;3.83;63.28
77043;BME280;65975;53.936;27.540;2023-02-14T09:21:13;99982.97;;;3.99;63.46
77043;BME280;65975;53.936;27.540;2023-02-14T09:23:38;99995.16;;;4.08;62.64
77043;BME280;65975;53.936;27.540;2023-02-14T09:26:06;99976.03;;;3.94;62.02
77043;BME280;65975;53.936;27.540;2023-02-14T09:28:32;99990.69;;;3.93;61.96
77043;BME280;65975;53.936;27.540;2023-02-14T09:30:57;99980.28;;;3.89;61.98
77043;BME280;65975;53.936;27.540;2023-02-14T09:33:26;99942.38;;;4.00;61.31
77043;BME280;65975;53.936;27.540;2023-02-14T09:35:53;100008.53;;;4.61;59.80
77043;BME280;65975;53.936;27.540;2023-02-14T09:38:37;100001.06;;;5.10;58.76
77043;BME280;65975;53.936;27.540;2023-02-14T09:41:07;100006.75;;;4.53;58.98
77043;BME280;65975;53.936;27.540;2023-02-14T09:46:19;99993.63;;;6.65;54.86
77043;BME280;65975;53.936;27.540;2023-02-14T09:48:48;99991.91;;;6.01;53.77
77043;BME280;65975;53.936;27.540;2023-02-14T09:51:16;100011.81;;;6.12;54.03
77043;BME280;65975;53.936;27.540;2023-02-14T09:54:05;100026.38;;;5.55;54.56
77043;BME280;65975;53.936;27.540;2023-02-14T09:56:51;100016.88;;;5.57;54.76
77043;BME280;65975;53.936;27.540;2023-02-14T10:04:39;100022.06;;;5.55;53.73
77043;BME280;65975;53.936;27.540;2023-02-14T10:07:21;100021.03;;;5.23;57.80
77043;BME280;65975;53.936;27.540;2023-02-14T10:12:23;99947.44;;;5.12;55.67
77043;BME280;65975;53.936;27.540;2023-02-14T10:14:52;99987.53;;;5.99;54.77
77043;BME280;65975;53.936;27.540;2023-02-14T10:17:40;100028.03;;;5.35;53.45
77043;BME280;65975;53.936;27.540;2023-02-14T10:20:24;99988.78;;;4.78;54.55
77043;BME280;65975;53.936;27.540;2023-02-14T10:26:13;100015.94;;;5.46;55.37
77043;BME280;65975;53.936;27.540;2023-02-14T10:28:44;99997.41;;;4.77;55.64
77043;BME280;65975;53.936;27.540;2023-02-14T10:31:26;100015.88;;;5.28;55.39
77043;BME280;65975;53.936;27.540;2023-02-14T10:34:04;100022.81;;;5.29;56.62
77043;BME280;65975;53.936;27.540;2023-02-14T10:44:50;99943.31;;;6.73;51.22
77043;BME280;65975;53.936;27.540;2023-02-14T10:52:49;100013.59;;;6.26;51.62
77043;BME280;65975;53.936;27.540;2023-02-14T10:55:23;99995.25;;;7.19;51.19
77043;BME280;65975;53.936;27.540;2023-02-14T10:57:53;99997.09;;;6.68;49.72
77043;BME280;65975;53.936;27.540;2023-02-14T11:00:28;99949.28;;;7.04;50.29
77043;BME280;65975;53.936;27.540;2023-02-14T11:03:00;100021.41;;;6.67;49.12
77043;BME280;65975;53.936;27.540;2023-02-14T11:08:01;100019.97;;;8.14;46.05
77043;BME280;65975;53.936;27.540;2023-02-14T11:10:34;100017.66;;;7.59;47.84
77043;BME280;65975;53.936;27.540;2023-02-14T11:13:00;100005.88;;;8.44;45.70
77043;BME280;65975;53.936;27.540;2023-02-14T11:15:30;99931.19;;;8.26;44.26
77043;BME280;65975;53.936;27.540;2023-02-14T11:18:20;100003.00;;;10.70;40.78
77043;BME280;65975;53.936;27.540;2023-02-14T11:21:13;99984.03;;;10.02;39.85
77043;BME280;65975;53.936;27.540;2023-02-14T11:23:44;100009.22;;;10.10;38.75
77043;BME280;65975;53.936;27.540;2023-02-14T11:26:31;100010.56;;;9.77;40.25
77043;BME280;65975;53.936;27.540;2023-02-14T11:29:09;100008.44;;;9.34;38.94
77043;BME280;65975;53.936;27.540;2023-02-14T11:31:37;100009.72;;;10.88;36.87
77043;BME280;65975;53.936;27.540;2023-02-14T11:34:14;100011.84;;;9.41;38.50
77043;BME280;65975;53.936;27.540;2023-02-14T11:36:46;100000.53;;;10.06;37.44
77043;BME280;65975;53.936;27.540;2023-02-14T11:39:33;100013.94;;;10.45;38.04
77043;BME280;65975;53.936;27.540;2023-02-14T11:42:02;100009.38;;;11.06;36.32
77043;BME280;65975;53.936;27.540;2023-02-14T11:44:32;99984.28;;;11.38;34.86
77043;BME280;65975;53.936;27.540;2023-02-14T11:47:28;99960.06;;;10.80;35.11
77043;BME280;65975;53.936;27.540;2023-02-14T11:50:19;100026.66;;;10.67;35.76
77043;BME280;65975;53.936;27.540;2023-02-14T11:52:50;100023.63;;;10.90;38.06
77043;BME280;65975;53.936;27.540;2023-02-14T11:55:31;100027.38;;;11.25;34.80
77043;BME280;65975;53.936;27.540;2023-02-14T11:58:02;100025.50;;;11.31;33.92
77043;BME280;65975;53.936;27.540;2023-02-14T12:00:30;100019.91;;;11.92;32.92
77043;BME280;65975;53.936;27.540;2023-02-14T12:02:58;100025.09;;;11.51;33.60
77043;BME280;65975;53.936;27.540;2023-02-14T12:05:29;99931.59;;;11.90;32.23
77043;BME280;65975;53.936;27.540;2023-02-14T12:08:00;100016.94;;;11.66;31.81
77043;BME280;65975;53.936;27.540;2023-02-14T12:10:32;100032.72;;;11.20;32.76
77043;BME280;65975;53.936;27.540;2023-02-14T12:13:00;100035.97;;;11.33;33.88
77043;BME280;65975;53.936;27.540;2023-02-14T12:21:37;99930.69;;;11.51;31.84
77043;BME280;65975;53.936;27.540;2023-02-14T12:26:44;100017.78;;;11.22;32.35
77043;BME280;65975;53.936;27.540;2023-02-14T12:29:16;100050.19;;;11.64;31.04
77043;BME280;65975;53.936;27.540;2023-02-14T12:31:45;100042.19;;;13.52;30.19
77043;BME280;65975;53.936;27.540;2023-02-14T12:34:13;100016.66;;;13.23;30.16
77043;BME280;65975;53.936;27.540;2023-02-14T12:39:33;100045.41;;;13.92;29.85
77043;BME280;65975;53.936;27.540;2023-02-14T12:42:44;100040.66;;;14.61;29.00
77043;BME280;65975;53.936;27.540;2023-02-14T12:45:01;100044.22;;;13.08;30.54
77043;BME280;65975;53.936;27.540;2023-02-14T12:47:51;100039.81;;;13.43;29.60
77043;BME280;65975;53.936;27.540;2023-02-14T12:50:45;99976.88;;;12.35;29.99
77043;BME280;65975;53.936;27.540;2023-02-14T12:56:44;100053.31;;;13.61;28.89
77043;BME280;65975;53.936;27.540;2023-02-14T13:21:50;100086.38;;;7.45;40.24
77043;BME280;65975;53.936;27.540;2023-02-14T13:24:24;100092.53;;;6.80;41.79
77043;BME280;65975;53.936;27.540;2023-02-14T13:26:58;100107.25;;;6.81;42.25
77043;BME280;65975;53.936;27.540;2023-02-14T13:29:32;100117.69;;;7.19;41.23
77043;BME280;65975;53.936;27.540;2023-02-14T13:32:02;100089.91;;;6.89;41.75
77043;BME280;65975;53.936;27.540;2023-02-14T13:34:36;100108.13;;;7.18;41.88
77043;BME280;65975;53.936;27.540;2023-02-14T13:37:05;100100.31;;;6.75;42.23
77043;BME280;65975;53.936;27.540;2023-02-14T13:39:40;100124.22;;;8.37;39.27
77043;BME280;65975;53.936;27.540;2023-02-14T13:42:09;100023.13;;;8.62;37.47
77043;BME280;65975;53.936;27.540;2023-02-14T13:47:04;100121.84;;;7.88;40.00
77043;BME280;65975;53.936;27.540;2023-02-14T13:49:32;100116.78;;;7.14;41.45
77043;BME280;65975;53.936;27.540;2023-02-14T13:52:04;100080.38;;;6.65;41.82
77043;BME280;65975;53.936;27.540;2023-02-14T13:54:37;100103.75;;;6.44;43.44
77043;BME280;65975;53.936;27.540;2023-02-14T13:57:25;100139.38;;;6.72;44.55
77043;BME280;65975;53.936;27.540;2023-02-14T14:02:44;100062.84;;;5.76;45.51
77043;BME280;65975;53.936;27.540;2023-02-14T14:05:45;100136.44;;;5.69;45.73
77043;BME280;65975;53.936;27.540;2023-02-14T14:11:01;100121.44;;;5.27;46.12
77043;BME280;65975;53.936;27.540;2023-02-14T14:21:28;100148.06;;;4.96;47.54
77043;BME280;65975;53.936;27.540;2023-02-14T14:26:43;100144.63;;;5.01;46.67
77043;BME280;65975;53.936;27.540;2023-02-14T14:29:21;100165.16;;;4.72;47.74
77043;BME280;65975;53.936;27.540;2023-02-14T14:31:49;100032.00;;;3.83;49.17
77043;BME280;65975;53.936;27.540;2023-02-14T14:34:22;100168.47;;;4.58;49.78
77043;BME280;65975;53.936;27.540;2023-02-14T14:36:50;100135.59;;;4.57;49.04
77043;BME280;65975;53.936;27.540;2023-02-14T14:39:29;100136.19;;;4.30;50.62
77043;BME280;65975;53.936;27.540;2023-02-14T14:42:03;100149.00;;;4.18;50.86
77043;BME280;65975;53.936;27.540;2023-02-14T14:44:30;100174.13;;;4.20;50.64
77043;BME280;65975;53.936;27.540;2023-02-14T14:46:58;100155.81;;;4.07;51.29
77043;BME280;65975;53.936;27.540;2023-02-14T14:49:24;100187.84;;;4.13;50.77
77043;BME280;65975;53.936;27.540;2023-02-14T14:51:50;100126.72;;;3.61;51.73
77043;BME280;65975;53.936;27.540;2023-02-14T14:54:20;100189.34;;;3.94;51.74
77043;BME280;65975;53.936;27.540;2023-02-14T14:56:58;100180.41;;;3.73;52.41
77043;BME280;65975;53.936;27.540;2023-02-14T14:59:33;100175.28;;;3.76;52.40
77043;BME280;65975;53.936;27.540;2023-02-14T15:02:00;100182.06;;;3.68;52.54
77043;BME280;65975;53.936;27.540;2023-02-14T15:04:30;100193.88;;;3.49;53.21
77043;BME280;65975;53.936;27.540;2023-02-14T15:06:57;100197.25;;;3.45;53.82
77043;BME280;65975;53.936;27.540;2023-02-14T15:09:40;100193.94;;;3.53;53.51
77043;BME280;65975;53.936;27.540;2023-02-14T15:12:08;100193.78;;;3.41;53.76
77043;BME280;65975;53.936;27.540;2023-02-14T15:14:54;100172.84;;;3.28;54.63
77043;BME280;65975;53.936;27.540;2023-02-14T15:17:26;100209.72;;;3.14;55.21
77043;BME280;65975;53.936;27.540;2023-02-14T15:20:01;100204.66;;;3.20;54.65
77043;BME280;65975;53.936;27.540;2023-02-14T15:24:58;100100.81;;;2.47;54.53
77043;BME280;65975;53.936;27.540;2023-02-14T15:27:25;100140.75;;;2.62;55.29
77043;BME280;65975;53.936;27.540;2023-02-14T15:30:16;100222.56;;;3.08;55.62
77043;BME280;65975;53.936;27.540;2023-02-14T15:32:48;100212.16;;;3.04;55.99